Humidity-temperature Sensor

Selected Measurement Type: Relative Humidity

 
Relative Humidity [%]     6 entries per hour
Showing data from 2/17/2023 (00:00:00 Z) to 2/10/2023 (00:01:00 Z)
Previous Next [ Day | 3-Days | 7-Days ]
First Last
Prev [ Day | 3-Days | 7-Days ] Next
First Last

Start Time:     :
End Time:     :     
Time (in GMT) :00 :50 :40 :30 :20 :10
Previous Next [ Day | 3-Days | 7-Days ]
First Last
Prev [ Day | 3-Days | 7-Days ] Next
First Last


123 => good data
MM => data is determined as missing
-- => data not received/configured
Back to Top Back to Top
2/17/2023 00:00 to 23:10 88.70 88.77 88.91 88.93 89.24 89.40
2/16/2023 23:00 to 22:10 89.13 89.18 89.40 89.67 89.87 89.65
2/16/2023 22:00 to 21:10 89.07 88.64 88.29 87.90 87.80 87.39
2/16/2023 21:00 to 20:10 87.20 87.06 87.24 87.06 87.24 86.96
2/16/2023 20:00 to 19:10 86.63 86.71 86.59 86.96 87.39 87.31
2/16/2023 19:00 to 18:10 86.81 87.04 87.18 87.70 87.55 87.39
2/16/2023 18:00 to 17:10 87.51 87.06 87.31 87.39 87.37 87.29
2/16/2023 17:00 to 16:10 86.92 87.00 87.39 87.18 87.14 87.14
2/16/2023 16:00 to 15:10 87.51 87.37 88.05 88.58 88.70 88.52
2/16/2023 15:00 to 14:10 88.54 88.46 88.13 87.84 88.21 88.46
2/16/2023 14:00 to 13:10 88.99 89.28 89.50 89.67 89.34 89.34
2/16/2023 13:00 to 12:10 89.90 90.12 89.87 90.02 90.12 90.04
2/16/2023 12:00 to 11:10 90.02 89.85 89.40 88.93 88.72 88.99
2/16/2023 11:00 to 10:10 88.35 88.17 88.23 87.96 87.51 87.33
2/16/2023 10:00 to 9:10 87.39 87.74 87.51 87.92 88.29 87.94
2/16/2023 09:00 to 8:10 87.53 87.66 87.84 88.13 88.11 88.03
2/16/2023 08:00 to 7:10 88.15 87.88 88.15 88.07 87.94 87.45
2/16/2023 07:00 to 6:10 87.41 88.00 88.17 88.11 87.47 87.16
2/16/2023 06:00 to 5:10 86.96 86.77 87.35 87.86 87.80 87.78
2/16/2023 05:00 to 4:10 87.86 87.57 87.47 87.68 87.66 87.78
2/16/2023 04:00 to 3:10 88.09 88.23 88.37 88.48 88.46 88.66
2/16/2023 03:00 to 2:10 88.37 88.44 88.68 88.23 88.29 88.60
2/16/2023 02:00 to 1:10 88.19 87.35 86.71 86.75 86.96 87.31
2/16/2023 01:00 to 0:10 87.12 87.84 88.07 88.11 88.11 87.90
2/16/2023 00:00 to 23:10 88.13 88.44 88.60 88.33 88.31 88.64
2/15/2023 23:00 to 22:10 88.13 88.54 88.99 89.48 89.73 89.42
2/15/2023 22:00 to 21:10 89.50 89.34 89.22 88.99 88.97 89.16
2/15/2023 21:00 to 20:10 88.77 88.52 88.64 89.03 89.28 89.36
2/15/2023 20:00 to 19:10 89.44 89.11 89.26 89.42 89.53 89.67
2/15/2023 19:00 to 18:10 89.73 89.50 89.44 89.07 89.26 89.40
2/15/2023 18:00 to 17:10 89.36 89.34 89.40 89.34 89.61 89.50
2/15/2023 17:00 to 16:10 89.30 89.28 89.09 88.93 89.18 89.38
2/15/2023 16:00 to 15:10 89.65 90.37 90.59 90.57 90.47 89.98
2/15/2023 15:00 to 14:10 89.77 89.50 89.16 88.81 88.97 89.26
2/15/2023 14:00 to 13:10 89.69 89.90 90.45 90.70 90.84 90.68
2/15/2023 13:00 to 12:10 90.74 90.53 90.80 90.51 90.27 90.20
2/15/2023 12:00 to 11:10 90.14 90.27 90.31 90.35 90.31 90.43
2/15/2023 11:00 to 10:10 90.33 90.29 90.53 90.61 90.49 90.27
2/15/2023 10:00 to 9:10 90.51 90.66 90.92 91.23 91.27 91.13
2/15/2023 09:00 to 8:10 91.07 90.76 91.00 90.94 90.84 90.88
2/15/2023 08:00 to 7:10 90.98 90.90 91.23 91.42 91.44 91.48
2/15/2023 07:00 to 6:10 91.40 91.44 91.25 91.09 90.90 91.07
2/15/2023 06:00 to 5:10 91.33 91.52 91.37 91.19 91.19 90.72
2/15/2023 05:00 to 4:10 90.76 90.51 90.49 90.57 90.35 90.20
2/15/2023 04:00 to 3:10 90.10 90.10 89.59 89.28 89.09 89.01
2/15/2023 03:00 to 2:10 89.65 89.96 89.67 89.81 90.04 89.92
2/15/2023 02:00 to 1:10 90.33 90.61 90.45 90.12 90.33 90.31
2/15/2023 01:00 to 0:10 90.43 90.68 90.88 90.72 90.29 90.10
2/15/2023 00:00 to 23:10 89.90 89.96 90.06 90.08 90.31 90.41
2/14/2023 23:00 to 22:10 90.72 90.92 91.13 90.76 90.78 90.53
2/14/2023 22:00 to 21:10 90.66 90.80 90.74 90.96 90.96 90.70
2/14/2023 21:00 to 20:10 90.76 91.09 91.15 91.31 91.48 91.48
2/14/2023 20:00 to 19:10 91.33 91.21 91.40 91.54 91.35 91.25
2/14/2023 19:00 to 18:10 91.19 91.13 91.33 91.27 91.11 91.07
2/14/2023 18:00 to 17:10 91.27 91.44 92.05 92.32 92.22 92.05
2/14/2023 17:00 to 16:10 91.95 91.85 91.68 91.54 91.31 91.15
2/14/2023 16:00 to 15:10 91.62 91.72 90.74 89.79 89.40 89.11
2/14/2023 15:00 to 14:10 89.55 90.33 90.55 90.06 89.40 89.03
2/14/2023 14:00 to 13:10 88.48 88.13 88.31 89.22 90.04 90.59
2/14/2023 13:00 to 12:10 90.70 91.13 92.03 92.94 93.80 94.52
2/14/2023 12:00 to 11:10 94.74 94.77 94.62 94.62 94.58 94.48
2/14/2023 11:00 to 10:10 94.31 94.13 93.80 93.41 93.12 93.12
2/14/2023 10:00 to 9:10 93.66 94.33 94.83 94.87 94.74 94.68
2/14/2023 09:00 to 8:10 94.87 95.34 96.04 96.53 96.49 96.55
2/14/2023 08:00 to 7:10 96.31 96.04 96.64 97.09 96.90 96.64
2/14/2023 07:00 to 6:10 96.37 95.90 95.09 94.46 94.33 94.11
2/14/2023 06:00 to 5:10 94.64 94.93 95.42 96.12 96.72 97.13
2/14/2023 05:00 to 4:10 97.11 97.05 97.03 97.07 96.92 96.72
2/14/2023 04:00 to 3:10 96.49 96.29 96.35 96.57 96.47 96.70
2/14/2023 03:00 to 2:10 96.53 96.96 96.72 95.44 93.53 90.92
2/14/2023 02:00 to 1:10 91.03 90.70 90.74 90.53 90.47 90.45
2/14/2023 01:00 to 0:10 89.96 89.63 89.65 89.63 89.40 89.28
2/14/2023 00:00 to 23:10 89.09 89.22 89.09 88.64 88.79 88.72
2/13/2023 23:00 to 22:10 88.95 89.34 89.16 90.10 89.96 89.77
2/13/2023 22:00 to 21:10 89.50 89.34 89.48 89.59 89.11 88.37
2/13/2023 21:00 to 20:10 88.25 88.87 88.83 88.83 88.85 88.81
2/13/2023 20:00 to 19:10 88.95 88.83 88.56 88.21 88.00 88.07
2/13/2023 19:00 to 18:10 88.42 88.74 88.89 89.32 89.75 90.12
2/13/2023 18:00 to 17:10 90.06 89.65 89.63 89.73 89.59 89.28
2/13/2023 17:00 to 16:10 -- -- -- -- -- --
2/13/2023 16:00 to 15:10 89.38 89.32 89.11 89.05 88.99 89.03
2/13/2023 15:00 to 14:10 88.58 88.89 88.72 88.52 88.52 88.46
2/13/2023 14:00 to 13:10 88.93 89.01 88.77 88.46 88.40 88.50
2/13/2023 13:00 to 12:10 88.79 88.93 88.74 88.85 89.18 89.01
2/13/2023 12:00 to 11:10 88.77 88.91 89.01 88.70 88.91 88.97
2/13/2023 11:00 to 10:10 88.81 88.42 88.40 88.46 88.11 88.25
2/13/2023 10:00 to 9:10 88.19 88.00 88.07 88.27 88.23 88.05
2/13/2023 09:00 to 8:10 87.90 88.35 88.29 88.03 88.07 88.17
2/13/2023 08:00 to 7:10 87.68 87.92 87.84 87.94 88.35 88.07
2/13/2023 07:00 to 6:10 87.90 88.13 87.86 87.86 87.82 87.96
2/13/2023 06:00 to 5:10 88.33 88.27 88.58 88.37 88.44 89.20
2/13/2023 05:00 to 4:10 89.26 89.24 89.22 89.22 89.42 89.61
2/13/2023 04:00 to 3:10 89.38 89.42 89.61 89.69 89.50 89.50
2/13/2023 03:00 to 2:10 89.50 89.48 89.44 89.96 90.02 89.87
2/13/2023 02:00 to 1:10 89.79 90.06 90.16 90.24 90.08 89.73
2/13/2023 01:00 to 0:10 90.24 89.85 88.83 88.56 88.83 88.85
2/13/2023 00:00 to 23:10 87.98 88.00 87.98 87.53 87.18 87.45
2/12/2023 23:00 to 22:10 87.24 87.70 87.24 87.10 86.96 87.31
2/12/2023 22:00 to 21:10 87.24 86.98 86.92 86.71 86.96 86.79
2/12/2023 21:00 to 20:10 86.57 86.85 86.83 87.08 87.06 86.87
2/12/2023 20:00 to 19:10 86.90 86.79 86.42 86.42 86.57 86.32
2/12/2023 19:00 to 18:10 86.59 86.92 86.05 85.79 85.46 85.21
2/12/2023 18:00 to 17:10 84.47 83.65 83.18 83.85 83.18 82.37
2/12/2023 17:00 to 16:10 82.29 82.56 82.25 82.91 83.01 83.85
2/12/2023 16:00 to 15:10 83.32 84.22 84.86 83.89 83.01 83.42
2/12/2023 15:00 to 14:10 83.13 83.11 83.77 83.81 83.53 83.79
2/12/2023 14:00 to 13:10 85.11 85.56 85.09 84.88 85.19 86.61
2/12/2023 13:00 to 12:10 87.31 87.84 87.78 88.00 88.42 88.46
2/12/2023 12:00 to 11:10 88.56 88.50 88.64 88.72 88.91 89.11
2/12/2023 11:00 to 10:10 89.24 88.68 88.56 89.32 89.63 89.59
2/12/2023 10:00 to 9:10 89.79 89.85 90.10 89.96 90.12 90.12
2/12/2023 09:00 to 8:10 90.08 90.00 89.96 90.33 90.80 90.63
2/12/2023 08:00 to 7:10 90.47 90.33 90.20 90.59 90.53 90.80
2/12/2023 07:00 to 6:10 90.74 90.84 90.94 90.76 90.35 90.16
2/12/2023 06:00 to 5:10 90.43 90.14 89.83 89.81 89.57 89.65
2/12/2023 05:00 to 4:10 89.48 89.34 89.28 89.63 89.85 90.02
2/12/2023 04:00 to 3:10 90.10 90.08 89.94 90.10 90.06 90.22
2/12/2023 03:00 to 2:10 90.49 90.35 90.20 90.02 89.69 89.40
2/12/2023 02:00 to 1:10 89.69 89.94 89.63 89.67 89.83 90.16
2/12/2023 01:00 to 0:10 90.49 90.45 90.66 90.63 90.51 90.43
2/12/2023 00:00 to 23:10 90.27 89.92 89.75 89.90 90.02 90.22
2/11/2023 23:00 to 22:10 90.43 90.49 90.74 90.90 91.17 91.05
2/11/2023 22:00 to 21:10 91.03 90.86 90.63 90.43 90.20 89.98
2/11/2023 21:00 to 20:10 90.18 90.49 90.14 89.75 89.48 89.63
2/11/2023 20:00 to 19:10 90.04 89.81 89.71 89.48 90.27 90.10
2/11/2023 19:00 to 18:10 89.53 89.81 91.15 91.33 91.68 91.64
2/11/2023 18:00 to 17:10 91.52 91.23 90.74 90.39 90.22 90.24
2/11/2023 17:00 to 16:10 89.98 89.59 89.48 89.28 89.18 89.07
2/11/2023 16:00 to 15:10 88.91 88.68 88.56 88.50 87.84 87.84
2/11/2023 15:00 to 14:10 87.63 88.31 88.09 87.88 87.70 88.52
2/11/2023 14:00 to 13:10 89.36 89.61 89.92 89.53 89.03 88.17
2/11/2023 13:00 to 12:10 88.00 88.19 88.15 88.70 88.35 88.07
2/11/2023 12:00 to 11:10 88.46 89.26 89.09 89.13 89.11 88.81
2/11/2023 11:00 to 10:10 88.33 88.60 88.66 88.91 89.16 89.34
2/11/2023 10:00 to 9:10 89.34 89.63 89.24 89.03 89.55 89.67
2/11/2023 09:00 to 8:10 89.42 89.13 88.85 88.48 88.40 88.62
2/11/2023 08:00 to 7:10 88.93 88.91 88.46 88.56 88.74 88.81
2/11/2023 07:00 to 6:10 88.44 87.96 87.98 87.98 87.76 87.59
2/11/2023 06:00 to 5:10 87.76 88.07 87.88 87.80 87.74 87.37
2/11/2023 05:00 to 4:10 87.29 86.90 86.77 86.53 86.77 86.87
2/11/2023 04:00 to 3:10 87.29 87.16 87.70 87.61 87.80 87.76
2/11/2023 03:00 to 2:10 87.24 86.90 86.67 86.71 86.63 86.63
2/11/2023 02:00 to 1:10 86.61 86.81 86.87 87.16 86.83 86.67
2/11/2023 01:00 to 0:10 86.61 86.61 86.11 86.59 86.94 86.96
2/11/2023 00:00 to 23:10 86.98 86.75 87.02 87.43 87.39 87.08
2/10/2023 23:00 to 22:10 86.73 87.31 87.12 87.61 88.11 87.68
2/10/2023 22:00 to 21:10 87.10 86.42 86.57 87.45 88.13 88.35
2/10/2023 21:00 to 20:10 87.80 87.00 86.22 85.46 85.72 86.38
2/10/2023 20:00 to 19:10 86.77 86.67 86.79 87.39 87.72 87.43
2/10/2023 19:00 to 18:10 87.41 87.22 87.06 86.87 86.81 87.12
2/10/2023 18:00 to 17:10 87.41 87.57 87.84 87.92 87.33 87.16
2/10/2023 17:00 to 16:10 87.39 86.83 87.47 87.98 88.74 88.68
2/10/2023 16:00 to 15:10 88.74 88.23 88.03 87.98 88.27 88.54
2/10/2023 15:00 to 14:10 88.33 88.25 89.03 89.48 89.67 89.59
2/10/2023 14:00 to 13:10 89.59 89.55 89.63 89.96 90.08 90.39
2/10/2023 13:00 to 12:10 90.68 90.92 90.92 90.98 91.00 91.25
2/10/2023 12:00 to 11:10 91.42 91.72 92.03 91.79 91.95 91.77
2/10/2023 11:00 to 10:10 91.62 91.56 91.66 91.87 91.79 92.18
2/10/2023 10:00 to 9:10 92.07 92.05 91.87 91.74 91.72 91.87
2/10/2023 09:00 to 8:10 92.14 92.28 92.18 91.99 91.56 91.48
2/10/2023 08:00 to 7:10 91.72 91.50 91.31 91.03 91.03 91.15
2/10/2023 07:00 to 6:10 91.13 91.29 91.11 91.35 91.83 91.60
2/10/2023 06:00 to 5:10 91.58 91.64 91.33 90.88 90.63 90.63
2/10/2023 05:00 to 4:10 90.90 90.84 90.61 90.43 90.06 89.85
2/10/2023 04:00 to 3:10 90.02 89.57 89.44 89.42 89.38 89.40
2/10/2023 03:00 to 2:10 89.18 89.09 88.66 88.52 89.03 89.22
2/10/2023 02:00 to 1:10 89.13 88.85 88.77 88.89 89.18 89.26
2/10/2023 01:00 to 0:10 89.40 89.18 89.50 89.57 89.32 89.36